KFLG/FLG METAR and TAF weather

Enter ICAO airport designator
Station Type Date Time Source
KFLG METAR 2019/08/24 05:57 UTC NOAA

KFLG 240557Z AUTO 20006KT 10SM CLR 17/04 A3030 RMK AO2 SLP144 T01720044 10272 20172 51018


Station Type Date Time Source
KFLG Decoded METAR 2019/08/24 05:57 UTC NOAA

Station name not available
Aug 24, 2019 - 01:57 AM EDT / 2019.08.24 0557 UTC
Wind: from the SSW (200 degrees) at 7 MPH (6 KT):0
Visibility: 10 mile(s):0
Sky conditions: clear
Temperature: 63.0 F (17.2 C)
Dew Point: 39.9 F (4.4 C)
Relative Humidity: 42%
Pressure (altimeter): 30.3 in. Hg (1026 hPa)
Pressure tendency: 0.05 inches (1.8 hPa) higher than three hours ago
ob: KFLG 240557Z AUTO 20006KT 10SM CLR 17/04 A3030 RMK AO2 SLP144 T01720044 10272 20172 51018
cycle: 6

Station Type Date Time Source
KFLG TAF 2019/08/24 06:42 UTC NOAA

TAF KFLG 240539Z 2406/2506 VRB03KT P6SM SKC
FM241700 23010G18KT P6SM FEW250
FM250130 25007KT P6SM FEW250

Example: see airport list